Time;durP1;ratioP1;P1;durP2;ratioP2;P2;SDS_P1;SDS_P2;PMS_P1;PMS_P2;Temp;Humidity;BMP_temperature;BMP_pressure;BME280_temperature;BME280_humidity;BME280_pressure;Samples;Min_cycle;Max_cycle;Signal;HPM_P1;HPM_P2
2023/11/12 00:02:15;;;;;;;6.77;4.77;;;7.90;99.90;;;;;;5075462;28;20427;-68
2023/11/12 00:04:42;;;;;;;10.00;5.63;;;7.90;99.90;;;;;;5074890;28;20469;-66
2023/11/12 00:07:09;;;;;;;13.47;7.67;;;7.90;99.90;;;;;;5073917;28;20781;-68
2023/11/12 00:09:43;;;;;;;7.03;4.80;;;7.90;99.90;;;;;;5073757;28;20488;-68
2023/11/12 00:12:16;;;;;;;8.33;5.20;;;7.90;99.90;;;;;;5073603;28;20796;-67
2023/11/12 00:14:50;;;;;;;13.60;7.67;;;7.90;99.90;;;;;;5073336;28;20445;-68
2023/11/12 00:17:17;;;;;;;14.27;7.30;;;7.90;99.90;;;;;;5073766;28;20483;-67
2023/11/12 00:19:45;;;;;;;10.40;5.93;;;7.90;99.90;;;;;;5074341;28;20454;-67
2023/11/12 00:22:21;;;;;;;8.40;6.10;;;7.90;99.90;;;;;;5073493;28;20426;-67
2023/11/12 00:24:50;;;;;;;10.80;5.77;;;7.90;99.90;;;;;;5073671;28;20458;-67
2023/11/12 00:27:18;;;;;;;12.23;6.60;;;7.90;99.90;;;;;;5071991;28;20447;-66
2023/11/12 00:29:58;;;;;;;7.10;5.13;;;7.90;99.90;;;;;;5072045;28;21098;-67
2023/11/12 00:32:26;;;;;;;9.90;6.37;;;7.90;99.90;;;;;;5073651;28;20923;-67
2023/11/12 00:34:53;;;;;;;8.90;6.17;;;8.00;99.90;;;;;;5073775;28;20514;-66
2023/11/12 00:37:51;;;;;;;8.50;5.97;;;7.90;99.90;;;;;;5073319;28;20429;-66
2023/11/12 00:40:25;;;;;;;7.67;5.50;;;7.90;99.90;;;;;;5072925;28;20962;-67
2023/11/12 00:42:53;;;;;;;8.47;5.40;;;8.00;99.90;;;;;;5073520;28;20450;-67
2023/11/12 00:45:21;;;;;;;8.00;5.13;;;7.90;99.90;;;;;;5074819;28;20927;-67
2023/11/12 00:47:55;;;;;;;8.50;5.40;;;7.90;99.90;;;;;;5093981;28;20461;-66
2023/11/12 00:50:22;;;;;;;11.60;5.70;;;7.90;99.90;;;;;;5093226;28;20473;-67
2023/11/12 00:52:49;;;;;;;10.63;5.67;;;8.00;99.90;;;;;;5093393;28;21063;-67
2023/11/12 00:55:32;;;;;;;7.40;5.37;;;7.90;99.90;;;;;;5093228;28;20414;-67
2023/11/12 00:58:12;;;;;;;9.67;4.43;;;7.90;99.90;;;;;;5093508;28;20421;-67
2023/11/12 01:00:41;;;;;;;9.80;5.70;;;7.90;99.90;;;;;;5093447;28;20421;-66
2023/11/12 01:03:09;;;;;;;8.70;5.17;;;7.90;99.90;;;;;;5093824;28;20844;-67
2023/11/12 01:05:42;;;;;;;8.37;5.03;;;7.80;99.90;;;;;;5093102;28;20834;-67
2023/11/12 01:08:09;;;;;;;10.03;5.50;;;7.90;99.90;;;;;;5093156;28;20953;-67
2023/11/12 01:10:36;;;;;;;7.93;5.77;;;7.80;99.90;;;;;;5092942;28;20476;-68
2023/11/12 01:13:05;;;;;;;8.20;5.50;;;7.80;99.90;;;;;;5093864;28;20445;-67
2023/11/12 01:15:32;;;;;;;9.10;5.77;;;7.90;99.90;;;;;;5090279;28;20935;-67
2023/11/12 01:18:02;;;;;;;10.10;5.13;;;7.80;99.90;;;;;;5076372;28;20431;-66
2023/11/12 01:20:41;;;;;;;9.23;6.30;;;7.80;99.90;;;;;;5075787;28;20939;-67
2023/11/12 01:23:14;;;;;;;14.83;6.20;;;7.80;99.90;;;;;;5076738;28;20493;-66
2023/11/12 01:25:42;;;;;;;7.30;4.97;;;7.80;99.90;;;;;;5076346;28;20796;-66
2023/11/12 01:28:11;;;;;;;6.77;4.63;;;7.80;99.90;;;;;;5076670;28;20488;-66
2023/11/12 01:30:48;;;;;;;7.80;5.07;;;7.80;99.90;;;;;;5076667;28;20458;-66
2023/11/12 01:33:19;;;;;;;8.00;5.80;;;7.90;99.90;;;;;;5076342;28;20426;-66
2023/11/12 01:35:48;;;;;;;6.97;5.20;;;7.90;99.90;;;;;;5074999;28;20927;-66
2023/11/12 01:38:21;;;;;;;15.70;9.23;;;7.90;99.90;;;;;;5076373;28;20536;-65
2023/11/12 01:40:55;;;;;;;8.37;5.20;;;7.90;99.90;;;;;;5076532;28;20458;-66
2023/11/12 01:43:22;;;;;;;8.67;4.70;;;7.80;99.90;;;;;;5075277;28;20446;-66
2023/11/12 01:45:49;;;;;;;8.47;5.10;;;7.80;99.90;;;;;;5076584;28;20478;-66
2023/11/12 01:48:31;;;;;;;6.70;4.93;;;7.80;99.90;;;;;;5078445;28;20423;-65
2023/11/12 01:51:03;;;;;;;9.23;5.60;;;7.80;99.90;;;;;;5076621;28;20426;-66
2023/11/12 01:53:54;;;;;;;8.47;4.80;;;7.80;99.90;;;;;;5076441;28;21032;-67
2023/11/12 01:56:22;;;;;;;6.53;4.40;;;7.70;99.90;;;;;;5076155;28;20438;-66
2023/11/12 01:58:52;;;;;;;8.00;4.70;;;7.70;99.90;;;;;;5075073;28;20569;-67
2023/11/12 02:01:27;;;;;;;9.40;4.80;;;7.80;99.90;;;;;;5075701;28;20447;-68
2023/11/12 02:03:56;;;;;;;9.33;4.70;;;7.80;99.90;;;;;;5075435;28;20438;-66
2023/11/12 02:06:24;;;;;;;8.00;5.47;;;7.80;99.90;;;;;;5075611;28;20427;-66
2023/11/12 02:08:52;;;;;;;7.20;4.50;;;7.90;99.90;;;;;;5075452;28;20861;-67
2023/11/12 02:11:20;;;;;;;7.60;4.57;;;7.80;99.90;;;;;;5076133;28;20476;-66
2023/11/12 02:13:47;;;;;;;6.57;4.50;;;7.90;99.90;;;;;;5076534;28;20438;-66
2023/11/12 02:16:17;;;;;;;8.53;5.77;;;7.90;99.90;;;;;;5075501;28;20443;-67
2023/11/12 02:18:55;;;;;;;8.30;4.90;;;7.90;99.90;;;;;;5075435;28;20549;-66
2023/11/12 02:21:26;;;;;;;7.43;4.10;;;7.90;99.90;;;;;;5075065;28;20427;-66
2023/11/12 02:23:54;;;;;;;6.50;4.93;;;7.90;99.90;;;;;;5073951;28;20449;-66
2023/11/12 02:26:29;;;;;;;10.13;5.63;;;7.90;99.90;;;;;;5074848;28;20470;-67
2023/11/12 02:28:56;;;;;;;7.90;5.33;;;7.90;99.90;;;;;;5074607;28;20847;-66
2023/11/12 02:31:23;;;;;;;8.10;5.27;;;7.90;99.90;;;;;;5075025;28;20518;-67
2023/11/12 02:34:04;;;;;;;7.03;5.10;;;7.80;99.90;;;;;;5075564;28;20458;-66
2023/11/12 02:36:37;;;;;;;9.30;5.13;;;7.80;99.90;;;;;;5074957;28;20496;-66
2023/11/12 02:39:20;;;;;;;7.30;5.67;;;7.90;99.90;;;;;;5075038;28;20605;-67
2023/11/12 02:41:48;;;;;;;9.70;5.30;;;7.90;99.90;;;;;;5075289;28;20426;-67
2023/11/12 02:44:16;;;;;;;10.33;5.20;;;7.90;99.90;;;;;;5075208;28;20457;-67
2023/11/12 02:46:44;;;;;;;8.73;5.30;;;7.90;99.90;;;;;;5075860;28;20838;-66
2023/11/12 02:49:53;;;;;;;8.00;5.30;;;7.90;99.90;;;;;;5075160;28;20572;-66
2023/11/12 02:52:20;;;;;;;8.57;5.27;;;7.90;99.90;;;;;;5074534;28;20434;-67
2023/11/12 02:55:21;;;;;;;8.60;5.90;;;8.00;99.90;;;;;;5075436;28;20454;-66
2023/11/12 02:57:48;;;;;;;7.77;4.90;;;7.90;99.90;;;;;;5075658;28;20492;-66
2023/11/12 03:00:16;;;;;;;8.43;4.33;;;8.00;99.90;;;;;;5074907;28;20486;-66
2023/11/12 03:02:46;;;;;;;7.27;4.90;;;8.00;99.90;;;;;;5075134;28;20480;-66
2023/11/12 03:05:14;;;;;;;7.93;5.17;;;8.00;99.90;;;;;;5074737;28;20423;-66
2023/11/12 03:07:41;;;;;;;9.07;5.17;;;8.00;99.90;;;;;;5074181;28;20427;-67
2023/11/12 03:10:10;;;;;;;8.30;4.50;;;8.00;99.90;;;;;;5074243;28;20491;-66
2023/11/12 03:12:39;;;;;;;7.73;4.90;;;8.00;99.90;;;;;;5074740;28;20426;-66
2023/11/12 03:15:08;;;;;;;8.67;4.80;;;8.00;99.90;;;;;;5074402;28;20469;-66
2023/11/12 03:17:43;;;;;;;6.40;4.40;;;8.00;99.90;;;;;;5054137;28;20791;-66
2023/11/12 03:20:17;;;;;;;5.87;4.23;;;8.00;99.90;;;;;;5054402;28;20877;-67
2023/11/12 03:22:45;;;;;;;6.90;4.60;;;8.00;99.90;;;;;;5054248;28;20435;-67
2023/11/12 03:25:13;;;;;;;6.00;4.40;;;8.00;99.90;;;;;;5054673;28;20455;-66
2023/11/12 03:27:43;;;;;;;7.90;4.63;;;7.90;99.90;;;;;;5054523;28;20847;-67
2023/11/12 03:30:12;;;;;;;9.50;5.10;;;8.00;99.90;;;;;;5054578;28;20490;-66
2023/11/12 03:32:39;;;;;;;7.30;4.53;;;7.90;99.90;;;;;;5054103;28;20489;-66
2023/11/12 03:35:11;;;;;;;6.10;4.20;;;7.90;99.90;;;;;;5054067;28;20470;-67
2023/11/12 03:37:38;;;;;;;7.90;5.00;;;7.90;99.90;;;;;;5054234;28;20434;-66
2023/11/12 03:40:12;;;;;;;4.83;3.57;;;7.90;99.90;;;;;;5055398;28;20525;-65
2023/11/12 03:42:38;;;;;;;5.20;3.50;;;7.90;99.90;;;;;;5073561;28;20423;-66
2023/11/12 03:45:08;;;;;;;7.87;4.57;;;7.90;99.90;;;;;;5073816;28;20439;-67
2023/11/12 03:47:35;;;;;;;7.80;4.00;;;7.90;99.90;;;;;;5073218;28;20442;-66
2023/11/12 03:50:04;;;;;;;6.63;4.53;;;7.90;99.90;;;;;;5073375;28;20478;-66
2023/11/12 03:52:33;;;;;;;8.50;5.33;;;7.90;99.90;;;;;;5073830;28;20485;-66
2023/11/12 03:55:06;;;;;;;9.57;5.40;;;7.90;99.90;;;;;;5073759;28;20443;-66
2023/11/12 03:58:10;;;;;;;6.93;4.77;;;7.90;99.90;;;;;;5074065;28;20472;-66
2023/11/12 04:00:39;;;;;;;7.50;4.90;;;7.90;99.90;;;;;;5074081;28;20496;-66
2023/11/12 04:03:06;;;;;;;5.37;4.17;;;7.90;99.90;;;;;;5072211;28;20533;-66
2023/11/12 04:05:33;;;;;;;7.37;5.73;;;7.90;99.90;;;;;;5073527;28;20489;-67
2023/11/12 04:08:00;;;;;;;5.90;4.40;;;7.90;99.90;;;;;;5073788;28;20419;-66
2023/11/12 04:10:27;;;;;;;9.70;5.27;;;7.90;99.90;;;;;;5073355;28;20502;-66
2023/11/12 04:13:04;;;;;;;6.40;3.80;;;7.90;99.90;;;;;;5073462;28;20423;-67
2023/11/12 04:15:52;;;;;;;9.73;5.63;;;7.90;99.90;;;;;;5070969;28;20474;-66
2023/11/12 04:18:19;;;;;;;6.90;4.90;;;8.00;99.90;;;;;;5053669;28;20846;-65
2023/11/12 04:20:47;;;;;;;10.13;5.10;;;8.00;99.90;;;;;;5052732;28;20875;-66
2023/11/12 04:23:23;;;;;;;6.63;4.87;;;8.00;99.90;;;;;;5051860;28;20478;-66
2023/11/12 04:25:51;;;;;;;7.50;5.13;;;7.90;99.90;;;;;;5053413;28;20489;-67
2023/11/12 04:28:19;;;;;;;6.53;4.40;;;8.00;99.90;;;;;;5052875;28;20443;-66
2023/11/12 04:30:57;;;;;;;5.53;4.20;;;8.00;99.90;;;;;;5053446;28;20470;-66
2023/11/12 04:34:02;;;;;;;6.50;4.57;;;7.90;99.90;;;;;;5053320;28;20490;-66
2023/11/12 04:36:29;;;;;;;4.67;3.23;;;7.90;99.90;;;;;;5049478;28;20427;-66
2023/11/12 04:38:58;;;;;;;5.87;3.27;;;7.90;99.90;;;;;;5053137;28;20487;-66
2023/11/12 04:41:47;;;;;;;9.07;5.07;;;7.90;99.90;;;;;;5054400;28;20512;-66
2023/11/12 04:44:14;;;;;;;6.57;4.33;;;7.90;99.90;;;;;;5053941;28;20792;-66
2023/11/12 04:46:46;;;;;;;7.67;6.13;;;7.90;99.90;;;;;;5053526;28;20404;-66
2023/11/12 04:49:15;;;;;;;7.03;5.33;;;7.90;99.90;;;;;;5053401;28;20883;-66
2023/11/12 04:51:45;;;;;;;5.73;4.10;;;8.00;99.90;;;;;;5056814;28;20501;-66
2023/11/12 04:54:22;;;;;;;4.67;3.80;;;8.00;99.90;;;;;;5056879;28;20526;-66
2023/11/12 04:56:49;;;;;;;6.20;3.60;;;8.00;99.90;;;;;;5056812;28;20451;-66
2023/11/12 04:59:16;;;;;;;8.23;5.00;;;8.00;99.90;;;;;;5056480;28;20463;-66
2023/11/12 05:01:53;;;;;;;4.43;3.33;;;8.00;99.90;;;;;;5056626;28;20917;-66
2023/11/12 05:04:28;;;;;;;5.97;4.00;;;8.00;99.90;;;;;;5056471;28;20466;-66
2023/11/12 05:06:56;;;;;;;6.17;3.80;;;8.00;99.90;;;;;;5056743;28;20791;-66
2023/11/12 05:09:25;;;;;;;9.00;5.00;;;8.00;99.90;;;;;;5056542;28;20491;-67
2023/11/12 05:12:00;;;;;;;5.80;3.63;;;8.00;99.90;;;;;;5055439;28;20495;-66
2023/11/12 05:14:28;;;;;;;9.33;5.67;;;8.00;99.90;;;;;;5056683;28;20438;-67
2023/11/12 05:16:56;;;;;;;5.83;3.60;;;8.00;99.90;;;;;;5086106;28;20449;-66
2023/11/12 05:19:23;;;;;;;6.63;4.70;;;8.00;99.90;;;;;;5095009;28;21011;-68
2023/11/12 05:21:51;;;;;;;5.93;3.50;;;7.90;99.90;;;;;;5097243;28;20426;-71
2023/11/12 05:24:18;;;;;;;6.20;4.30;;;7.90;99.90;;;;;;5098627;28;20487;-66
2023/11/12 05:26:47;;;;;;;5.03;3.40;;;7.90;99.90;;;;;;5097217;28;20451;-66
2023/11/12 05:32:26;;;;;;;6.43;3.90;;;7.90;99.90;;;;;;5096610;28;20467;-66
2023/11/12 05:34:53;;;;;;;7.23;4.10;;;7.80;99.90;;;;;;5096808;28;20433;-66
2023/11/12 05:37:21;;;;;;;8.17;4.30;;;7.90;99.90;;;;;;5097024;28;20448;-66
2023/11/12 05:39:48;;;;;;;9.70;4.70;;;7.90;99.90;;;;;;5092085;28;20497;-66
2023/11/12 05:42:16;;;;;;;5.80;3.73;;;7.90;99.90;;;;;;5075832;28;20455;-67
2023/11/12 05:44:43;;;;;;;7.17;3.97;;;8.00;99.90;;;;;;5076051;28;20506;-66
2023/11/12 05:47:10;;;;;;;7.17;4.37;;;8.00;99.90;;;;;;5075749;28;20935;-66
2023/11/12 05:49:38;;;;;;;6.33;3.63;;;7.90;99.90;;;;;;5076071;28;20458;-66
2023/11/12 05:52:06;;;;;;;6.40;4.73;;;8.00;99.90;;;;;;5075833;28;20469;-66
2023/11/12 05:54:35;;;;;;;11.00;5.20;;;7.90;99.90;;;;;;5076003;28;20455;-66
2023/11/12 05:57:08;;;;;;;7.10;4.70;;;7.90;99.90;;;;;;5075663;28;20462;-66
2023/11/12 05:59:37;;;;;;;6.80;4.00;;;7.90;99.90;;;;;;5075421;28;20465;-67
2023/11/12 06:02:04;;;;;;;7.03;4.67;;;7.90;99.90;;;;;;5075162;28;20438;-66
2023/11/12 06:04:34;;;;;;;7.00;4.50;;;8.00;99.90;;;;;;5076276;28;20415;-66
2023/11/12 06:07:02;;;;;;;7.53;5.00;;;8.00;99.90;;;;;;5076007;28;20423;-66
2023/11/12 06:09:30;;;;;;;6.73;4.53;;;7.90;99.90;;;;;;5074046;28;20463;-66
2023/11/12 06:12:15;;;;;;;7.43;4.93;;;7.90;99.90;;;;;;5075445;28;20799;-66
2023/11/12 06:14:43;;;;;;;5.93;4.33;;;7.90;99.90;;;;;;5069147;28;20993;-66
2023/11/12 06:17:12;;;;;;;6.47;4.17;;;7.90;99.90;;;;;;5089280;28;20465;-66
2023/11/12 06:19:40;;;;;;;5.80;3.77;;;7.90;99.90;;;;;;5095671;28;20827;-67
2023/11/12 06:22:27;;;;;;;5.63;3.90;;;7.90;99.90;;;;;;5095342;28;20437;-66
2023/11/12 06:25:22;;;;;;;6.67;5.10;;;7.90;99.90;;;;;;5090110;28;20512;-66
2023/11/12 06:27:49;;;;;;;9.50;4.30;;;7.90;99.90;;;;;;5073633;28;20529;-66
2023/11/12 06:30:17;;;;;;;5.70;4.77;;;7.90;99.90;;;;;;5075107;28;20485;-66
2023/11/12 06:33:02;;;;;;;5.67;4.37;;;7.90;99.90;;;;;;5074899;28;20510;-67
2023/11/12 06:35:29;;;;;;;6.90;4.33;;;7.90;99.90;;;;;;5075112;28;20427;-67
2023/11/12 06:37:58;;;;;;;6.97;4.60;;;7.90;99.90;;;;;;5073805;28;20427;-67
2023/11/12 06:40:32;;;;;;;8.97;5.30;;;7.90;99.90;;;;;;5074985;28;20427;-67
2023/11/12 06:43:06;;;;;;;8.30;4.47;;;7.90;99.90;;;;;;5075382;28;20523;-67
2023/11/12 06:45:33;;;;;;;7.53;5.10;;;7.90;99.90;;;;;;5075804;28;20477;-66
2023/11/12 06:48:00;;;;;;;5.90;4.97;;;7.90;99.90;;;;;;5075471;28;20419;-66
2023/11/12 06:50:33;;;;;;;8.37;4.40;;;7.90;99.90;;;;;;5074134;28;21064;-67
2023/11/12 06:53:32;;;;;;;6.43;4.17;;;7.90;99.90;;;;;;5074567;28;20525;-66
2023/11/12 06:56:02;;;;;;;8.47;4.93;;;7.80;99.90;;;;;;5074473;28;20503;-65
2023/11/12 06:58:58;;;;;;;5.63;4.10;;;7.90;99.90;;;;;;5072996;28;20466;-67
2023/11/12 07:01:25;;;;;;;10.13;5.40;;;7.90;99.90;;;;;;5074102;28;20583;-66
2023/11/12 07:03:53;;;;;;;6.57;4.77;;;7.90;99.90;;;;;;5074237;28;20459;-66
2023/11/12 07:06:48;;;;;;;6.67;4.60;;;7.90;99.90;;;;;;5073802;28;20853;-66
2023/11/12 07:09:15;;;;;;;6.27;3.60;;;8.00;99.90;;;;;;5057104;28;20542;-66
2023/11/12 07:11:43;;;;;;;8.60;5.33;;;8.00;99.90;;;;;;5054878;28;20511;-66
2023/11/12 07:14:13;;;;;;;5.83;4.43;;;8.00;99.90;;;;;;5053625;28;20428;-66
2023/11/12 07:16:56;;;;;;;9.60;4.70;;;8.00;99.90;;;;;;5054436;28;20463;-65
2023/11/12 07:19:24;;;;;;;6.93;4.17;;;8.10;99.90;;;;;;5054044;28;20538;-66
2023/11/12 07:21:54;;;;;;;6.60;4.87;;;8.10;99.90;;;;;;5055322;28;20851;-65
2023/11/12 07:24:22;;;;;;;13.60;5.30;;;8.10;99.90;;;;;;5056248;28;20423;-65
2023/11/12 07:26:50;;;;;;;10.10;4.83;;;8.10;99.90;;;;;;5056378;28;20575;-65
2023/11/12 07:29:28;;;;;;;5.17;3.83;;;8.10;99.90;;;;;;5055322;28;20471;-66
2023/11/12 07:31:55;;;;;;;7.23;5.10;;;8.20;99.90;;;;;;5055909;28;20506;-65
2023/11/12 07:34:23;;;;;;;7.50;5.53;;;8.30;99.90;;;;;;5055838;28;20481;-65
2023/11/12 07:36:51;;;;;;;6.53;5.40;;;8.30;99.90;;;;;;5056672;28;20450;-66
2023/11/12 07:39:20;;;;;;;6.30;4.13;;;8.30;99.90;;;;;;5056627;28;20488;-66
2023/11/12 07:41:47;;;;;;;8.57;5.53;;;8.30;99.90;;;;;;5077646;28;20509;-66
2023/11/12 07:44:23;;;;;;;9.17;5.43;;;8.30;99.90;;;;;;5065236;28;20443;-65
2023/11/12 07:46:51;;;;;;;8.03;5.27;;;8.30;99.90;;;;;;5062734;28;20464;-65
2023/11/12 07:49:21;;;;;;;6.10;4.70;;;8.40;99.90;;;;;;5076615;28;20458;-66
2023/11/12 07:52:02;;;;;;;8.53;4.10;;;8.40;99.90;;;;;;5069425;28;20522;-65
2023/11/12 07:54:29;;;;;;;6.80;4.80;;;8.40;99.90;;;;;;5054193;28;20453;-65
2023/11/12 07:56:56;;;;;;;12.47;5.87;;;8.40;99.90;;;;;;5059375;28;20534;-64
2023/11/12 07:59:29;;;;;;;8.10;5.50;;;8.40;99.90;;;;;;5064765;28;20508;-66
2023/11/12 08:02:14;;;;;;;8.97;4.47;;;8.50;99.90;;;;;;5063856;28;20463;-65
2023/11/12 08:04:41;;;;;;;7.83;4.90;;;8.60;99.90;;;;;;5070505;28;20562;-66
2023/11/12 08:07:08;;;;;;;9.37;5.60;;;8.60;99.90;;;;;;5056438;28;20833;-66
2023/11/12 08:09:38;;;;;;;9.67;5.03;;;8.60;99.90;;;;;;5053397;28;20499;-66
2023/11/12 08:12:06;;;;;;;6.60;4.67;;;8.60;99.90;;;;;;5072586;28;20841;-65
2023/11/12 08:14:38;;;;;;;9.60;6.17;;;8.70;99.90;;;;;;5072945;28;20520;-66
2023/11/12 08:17:45;;;;;;;6.33;4.33;;;8.80;99.90;;;;;;5083514;28;20829;-66
2023/11/12 08:20:35;;;;;;;6.90;4.83;;;8.80;99.90;;;;;;5091042;28;20552;-65
2023/11/12 08:23:03;;;;;;;8.57;5.17;;;8.90;99.90;;;;;;5073156;28;20430;-66
2023/11/12 08:25:30;;;;;;;9.17;5.50;;;8.90;99.90;;;;;;5074287;28;20434;-65
2023/11/12 08:27:59;;;;;;;6.63;4.80;;;9.00;99.90;;;;;;5077530;28;20423;-66
2023/11/12 08:30:27;;;;;;;8.37;5.50;;;9.00;99.90;;;;;;5067585;28;20514;-65
2023/11/12 08:32:54;;;;;;;8.60;5.17;;;9.00;99.90;;;;;;5057369;28;20474;-68
2023/11/12 08:35:21;;;;;;;7.30;5.90;;;9.00;99.90;;;;;;5057015;28;20873;-67
2023/11/12 08:37:56;;;;;;;9.93;6.80;;;9.10;99.90;;;;;;5057262;28;20418;-67
2023/11/12 08:40:26;;;;;;;8.80;5.40;;;9.10;99.90;;;;;;5077347;28;20473;-67
2023/11/12 08:43:23;;;;;;;7.73;5.10;;;9.10;99.90;;;;;;5077314;28;20435;-67
2023/11/12 08:45:52;;;;;;;8.97;5.60;;;9.10;99.90;;;;;;5089119;28;20441;-66
2023/11/12 08:48:20;;;;;;;8.80;6.00;;;9.00;99.90;;;;;;5084264;28;20513;-66
2023/11/12 08:50:47;;;;;;;9.77;6.00;;;9.00;99.90;;;;;;5077003;28;21010;-66
2023/11/12 08:53:27;;;;;;;10.57;6.40;;;9.00;99.90;;;;;;5076813;28;20427;-65
2023/11/12 08:55:59;;;;;;;6.00;5.20;;;9.10;99.90;;;;;;5076643;28;20450;-67
2023/11/12 08:58:28;;;;;;;9.57;6.47;;;9.10;99.90;;;;;;5076899;28;20458;-67
2023/11/12 09:00:57;;;;;;;6.80;5.03;;;9.10;99.90;;;;;;5077359;28;20441;-66
2023/11/12 09:03:36;;;;;;;6.40;4.70;;;9.20;99.90;;;;;;5078095;28;20434;-66
2023/11/12 09:06:05;;;;;;;8.47;4.90;;;9.10;99.90;;;;;;5078186;28;20446;-67
2023/11/12 09:08:33;;;;;;;6.73;5.40;;;9.20;99.90;;;;;;5069376;28;20467;-65
2023/11/12 09:11:01;;;;;;;6.10;4.70;;;9.30;99.90;;;;;;5076391;28;20427;-66
2023/11/12 09:13:28;;;;;;;8.53;5.43;;;9.40;99.90;;;;;;5056771;28;20420;-67
2023/11/12 09:16:06;;;;;;;6.43;5.13;;;9.50;99.90;;;;;;5061719;28;20931;-67
2023/11/12 09:21:21;;;;;;;7.67;4.60;;;9.60;99.90;;;;;;5054818;28;20451;-67
2023/11/12 09:23:55;;;;;;;5.80;4.97;;;9.60;99.90;;;;;;5056184;28;20439;-67
2023/11/12 09:26:30;;;;;;;6.80;5.27;;;9.60;99.90;;;;;;5056675;28;20712;-67
2023/11/12 09:28:57;;;;;;;9.17;5.40;;;9.80;99.90;;;;;;5058133;28;20490;-66
2023/11/12 09:31:26;;;;;;;6.87;4.57;;;9.70;99.90;;;;;;5076089;28;20497;-67
2023/11/12 09:33:53;;;;;;;7.80;5.07;;;9.80;99.90;;;;;;5076411;28;20975;-67
2023/11/12 09:36:24;;;;;;;8.20;5.10;;;9.70;99.90;;;;;;5075368;28;20467;-67
2023/11/12 09:38:51;;;;;;;6.33;4.60;;;9.70;99.90;;;;;;5076437;28;20458;-66
2023/11/12 09:41:23;;;;;;;6.70;4.87;;;9.70;99.90;;;;;;5070845;28;20432;-68
2023/11/12 09:43:58;;;;;;;5.97;4.90;;;9.70;99.90;;;;;;5060195;28;20439;-66
2023/11/12 09:46:33;;;;;;;6.83;4.67;;;9.70;99.90;;;;;;5060741;28;20569;-67
2023/11/12 09:49:02;;;;;;;7.10;4.50;;;9.70;99.90;;;;;;5075544;28;21001;-67
2023/11/12 09:51:29;;;;;;;8.90;3.80;;;9.70;99.90;;;;;;5076710;28;20558;-66
2023/11/12 09:54:13;;;;;;;7.77;4.40;;;9.60;99.90;;;;;;5076773;28;20479;-66
2023/11/12 09:56:46;;;;;;;4.83;3.20;;;9.50;99.90;;;;;;5057481;28;20495;-67
2023/11/12 09:59:14;;;;;;;4.23;2.90;;;9.50;99.90;;;;;;5066551;28;20560;-67
2023/11/12 10:02:05;;;;;;;4.63;3.60;;;9.50;99.90;;;;;;5077036;28;20427;-69
2023/11/12 10:04:32;;;;;;;3.97;2.57;;;9.50;99.90;;;;;;5069224;28;20454;-66
2023/11/12 10:07:03;;;;;;;5.20;3.00;;;9.50;99.90;;;;;;5068545;28;20490;-67
2023/11/12 10:09:37;;;;;;;5.87;3.53;;;9.40;99.90;;;;;;5066972;28;20478;-64
2023/11/12 10:12:13;;;;;;;5.00;3.50;;;9.40;99.90;;;;;;5068568;28;21451;-64
2023/11/12 10:14:41;;;;;;;9.47;4.43;;;9.40;99.90;;;;;;5076032;28;20879;-64
2023/11/12 10:17:11;;;;;;;7.13;4.20;;;9.50;99.90;;;;;;5076610;28;20435;-65
2023/11/12 10:19:40;;;;;;;6.10;3.73;;;9.50;99.90;;;;;;5078488;28;20504;-65
2023/11/12 10:22:37;;;;;;;6.40;3.80;;;9.60;99.90;;;;;;5072209;28;20458;-64
2023/11/12 10:25:06;;;;;;;7.00;4.30;;;9.70;99.90;;;;;;5072592;28;20465;-64
2023/11/12 10:27:53;;;;;;;9.47;5.10;;;9.70;99.90;;;;;;5077218;28;20458;-66
2023/11/12 10:30:22;;;;;;;9.40;5.13;;;9.80;99.90;;;;;;5090503;28;20985;-65
2023/11/12 10:32:51;;;;;;;9.70;5.57;;;9.70;99.90;;;;;;5096883;28;20469;-64
2023/11/12 10:35:30;;;;;;;5.97;4.17;;;9.70;99.90;;;;;;5097368;28;20431;-65
2023/11/12 10:38:01;;;;;;;6.43;4.10;;;9.70;99.90;;;;;;5097322;28;20891;-64
2023/11/12 10:40:28;;;;;;;5.80;3.30;;;9.80;99.90;;;;;;5057491;28;20439;-65
2023/11/12 10:43:06;;;;;;;7.70;4.60;;;9.70;99.90;;;;;;5057160;28;20908;-66
2023/11/12 10:45:36;;;;;;;11.63;3.90;;;9.70;99.90;;;;;;5056756;28;20459;-64
2023/11/12 10:48:05;;;;;;;6.90;4.80;;;9.70;99.90;;;;;;5061329;28;20549;-65
2023/11/12 10:50:33;;;;;;;5.03;3.60;;;9.80;99.90;;;;;;5076662;28;20434;-66
2023/11/12 10:53:01;;;;;;;6.37;3.97;;;9.90;99.90;;;;;;5078022;28;20521;-68
2023/11/12 10:55:29;;;;;;;4.30;2.70;;;10.00;99.90;;;;;;5078593;28;20981;-66
2023/11/12 10:58:13;;;;;;;5.93;3.73;;;10.00;99.90;;;;;;5076683;28;20507;-69
2023/11/12 11:00:40;;;;;;;2.70;2.47;;;10.00;99.90;;;;;;5062556;28;20426;-68
2023/11/12 11:03:10;;;;;;;3.80;2.97;;;10.00;99.90;;;;;;5076846;28;20511;-68
2023/11/12 11:05:37;;;;;;;4.50;2.83;;;10.00;99.90;;;;;;5078516;28;20473;-68
2023/11/12 11:08:04;;;;;;;4.10;2.87;;;10.00;99.90;;;;;;5075616;28;20794;-67
2023/11/12 11:10:35;;;;;;;3.30;2.73;;;10.00;99.90;;;;;;5077636;28;20515;-68
2023/11/12 11:13:03;;;;;;;4.40;2.57;;;10.00;99.90;;;;;;5081091;28;20535;-67
2023/11/12 11:15:42;;;;;;;5.43;4.20;;;9.90;99.90;;;;;;5070990;28;20434;-67
2023/11/12 11:18:54;;;;;;;5.87;3.40;;;9.80;99.90;;;;;;5075939;28;20782;-66
2023/11/12 11:24:47;;;;;;;4.63;3.53;;;9.60;99.90;;;;;;5062076;28;20899;-66
2023/11/12 11:27:18;;;;;;;11.90;3.77;;;9.70;99.90;;;;;;5060484;28;20429;-66
2023/11/12 11:32:17;;;;;;;6.13;4.10;;;9.70;99.90;;;;;;5084005;28;20483;-60
2023/11/12 11:34:48;;;;;;;8.03;4.80;;;9.70;99.90;;;;;;5086731;28;20446;-61
2023/11/12 11:37:19;;;;;;;6.73;5.20;;;9.70;99.90;;;;;;5096605;28;20478;-60
2023/11/12 11:39:47;;;;;;;8.17;5.20;;;9.60;99.90;;;;;;5096007;28;20435;-58
2023/11/12 11:42:19;;;;;;;6.70;5.20;;;9.60;99.90;;;;;;5094753;28;20454;-62
2023/11/12 11:44:52;;;;;;;7.23;4.97;;;9.60;99.90;;;;;;5094399;28;20431;-58
2023/11/12 11:47:22;;;;;;;6.97;5.27;;;9.60;99.90;;;;;;5094142;28;20462;-61
2023/11/12 11:50:11;;;;;;;7.47;6.00;;;9.60;99.90;;;;;;5063338;28;20536;-61
2023/11/12 11:52:39;;;;;;;7.93;5.20;;;9.60;99.90;;;;;;5092025;28;20478;-60
2023/11/12 11:55:17;;;;;;;15.30;7.20;;;9.70;99.90;;;;;;5090041;28;20934;-57
2023/11/12 11:57:47;;;;;;;8.70;6.83;;;9.60;99.90;;;;;;5079179;28;20518;-61
2023/11/12 12:00:17;;;;;;;9.30;6.07;;;9.70;99.90;;;;;;5091067;28;20449;-59
2023/11/12 12:02:45;;;;;;;9.30;6.10;;;9.80;99.90;;;;;;5087453;28;20431;-59
2023/11/12 12:05:14;;;;;;;9.43;6.70;;;9.80;99.90;;;;;;5079166;28;20510;-59
2023/11/12 12:07:44;;;;;;;11.17;6.63;;;9.90;99.90;;;;;;5090186;28;21165;-58
2023/11/12 12:10:25;;;;;;;10.27;7.50;;;9.90;99.90;;;;;;5091468;28;20525;-57
2023/11/12 12:12:53;;;;;;;9.50;6.73;;;10.00;99.90;;;;;;5091475;28;20474;-60
2023/11/12 12:15:20;;;;;;;8.00;6.47;;;9.90;99.90;;;;;;5087942;28;20518;-59
2023/11/12 12:17:49;;;;;;;11.17;7.53;;;9.90;99.90;;;;;;5084719;28;20466;-58
2023/11/12 12:20:18;;;;;;;10.60;6.53;;;9.80;99.90;;;;;;5081430;28;20463;-59
2023/11/12 12:22:45;;;;;;;7.27;6.40;;;9.90;99.90;;;;;;5082735;28;20451;-59
2023/11/12 12:25:12;;;;;;;7.63;6.23;;;9.80;99.90;;;;;;5087658;28;20444;-58
2023/11/12 12:27:52;;;;;;;10.50;6.57;;;9.80;99.90;;;;;;5084710;28;20470;-60
2023/11/12 12:30:19;;;;;;;7.87;6.00;;;9.90;99.90;;;;;;5081169;28;20469;-60
2023/11/12 12:32:46;;;;;;;10.93;5.70;;;9.90;99.90;;;;;;5084977;28;20568;-60
2023/11/12 12:35:23;;;;;;;9.67;5.90;;;9.90;99.90;;;;;;5080878;28;20451;-60
2023/11/12 12:37:50;;;;;;;7.63;6.20;;;10.00;99.90;;;;;;5078698;28;20487;-59
2023/11/12 12:40:27;;;;;;;7.00;5.33;;;10.00;99.90;;;;;;5085146;28;20460;-60
2023/11/12 12:42:54;;;;;;;8.87;5.90;;;10.00;99.90;;;;;;5077433;28;20478;-59
2023/11/12 12:45:22;;;;;;;6.90;5.30;;;10.00;99.90;;;;;;5091088;28;20485;-59
2023/11/12 12:47:49;;;;;;;6.70;6.00;;;9.90;99.90;;;;;;5091159;28;20499;-57
2023/11/12 12:50:25;;;;;;;10.63;7.60;;;9.90;99.90;;;;;;5074327;28;20444;-59
2023/11/12 12:53:10;;;;;;;7.33;5.53;;;9.90;99.90;;;;;;5083842;28;20496;-60
2023/11/12 12:55:40;;;;;;;6.60;5.37;;;9.90;99.90;;;;;;5092776;28;21080;-61
2023/11/12 12:58:07;;;;;;;8.17;5.37;;;9.90;99.90;;;;;;5094184;28;20450;-59
2023/11/12 13:00:35;;;;;;;9.93;5.47;;;9.90;99.90;;;;;;5094058;28;20445;-61
2023/11/12 13:03:03;;;;;;;5.37;4.13;;;10.00;99.90;;;;;;5094023;28;20502;-58
2023/11/12 13:05:31;;;;;;;6.70;4.80;;;10.00;99.90;;;;;;5076568;28;20477;-61
2023/11/12 13:08:00;;;;;;;6.20;4.23;;;9.90;99.90;;;;;;5075218;28;20441;-60
2023/11/12 13:10:27;;;;;;;5.50;4.70;;;9.90;99.90;;;;;;5083759;28;20466;-58
2023/11/12 13:12:56;;;;;;;6.30;5.40;;;9.90;99.90;;;;;;5098845;28;20466;-59
2023/11/12 13:15:24;;;;;;;14.00;5.77;;;9.80;99.90;;;;;;5098236;28;20474;-60
2023/11/12 13:17:52;;;;;;;6.20;5.03;;;9.80;99.90;;;;;;5095232;28;20438;-59
2023/11/12 13:20:25;;;;;;;7.30;5.87;;;9.80;99.90;;;;;;5088920;28;20531;-61
2023/11/12 13:22:52;;;;;;;11.07;5.33;;;9.80;99.90;;;;;;5080253;28;20426;-59
2023/11/12 13:25:20;;;;;;;9.03;5.33;;;9.80;99.90;;;;;;5096973;28;20466;-61
2023/11/12 13:27:48;;;;;;;7.10;5.87;;;9.70;99.90;;;;;;5096980;28;20466;-57
2023/11/12 13:30:16;;;;;;;7.67;5.00;;;9.80;99.90;;;;;;5093007;28;20521;-59
2023/11/12 13:32:46;;;;;;;5.60;5.10;;;9.70;99.90;;;;;;5097882;28;20536;-60